Terminal Aerodrome Forecast
Issued by NWS Omaha/Valley, NE

Home | Current Version | Previous Version | Graphics & Text | Print | Product List | Glossary On
Versions: 1 2 3 4 5 6 7 8 9 10 11 12 13 14 15 16 17 18 19 20 21 22 23 24 25 26 27 28 29 30 31 32 33 34 35 36 37 38
547
FTUS43 KOAX 230532
TAFOFK
TAF
KOFK 230532Z 2306/2406 25004KT 5SM BR OVC040
     FM231100 28006KT 6SM -SN BR OVC020
     FM231500 31007KT P6SM SCT020
     FM240000 02005KT P6SM BKN070=

USA.gov is the U.S. government's official web portal to all federal, state and local government web resources and services.